sensor_id;sensor_type;location;lat;lon;timestamp;temperature;humidity
21267;DHT22;10791;53.108;18.326;2023-04-30T00:00:04;8.10;99.90
21267;DHT22;10791;53.108;18.326;2023-04-30T00:05:30;8.00;99.90
21267;DHT22;10791;53.108;18.326;2023-04-30T00:10:34;7.80;99.90
21267;DHT22;10791;53.108;18.326;2023-04-30T00:15:37;7.70;99.90
21267;DHT22;10791;53.108;18.326;2023-04-30T00:20:40;7.50;99.90
21267;DHT22;10791;53.108;18.326;2023-04-30T00:25:43;7.40;99.90
21267;DHT22;10791;53.108;18.326;2023-04-30T00:30:47;7.30;99.90
21267;DHT22;10791;53.108;18.326;2023-04-30T00:35:50;7.20;99.90
21267;DHT22;10791;53.108;18.326;2023-04-30T00:40:53;7.10;99.90
21267;DHT22;10791;53.108;18.326;2023-04-30T00:45:57;7.10;99.90
21267;DHT22;10791;53.108;18.326;2023-04-30T00:51:05;7.00;99.90
21267;DHT22;10791;53.108;18.326;2023-04-30T00:56:10;6.90;99.90
21267;DHT22;10791;53.108;18.326;2023-04-30T01:01:14;6.80;99.90
21267;DHT22;10791;53.108;18.326;2023-04-30T01:06:18;6.70;99.90
21267;DHT22;10791;53.108;18.326;2023-04-30T01:11:30;6.60;99.90
21267;DHT22;10791;53.108;18.326;2023-04-30T01:16:50;6.40;99.90
21267;DHT22;10791;53.108;18.326;2023-04-30T01:21:57;6.40;99.90
21267;DHT22;10791;53.108;18.326;2023-04-30T01:32:22;6.20;99.90
21267;DHT22;10791;53.108;18.326;2023-04-30T01:43:10;6.20;99.90
21267;DHT22;10791;53.108;18.326;2023-04-30T01:53:41;6.00;99.90
21267;DHT22;10791;53.108;18.326;2023-04-30T01:58:47;5.90;99.90
21267;DHT22;10791;53.108;18.326;2023-04-30T02:03:51;5.80;99.90
21267;DHT22;10791;53.108;18.326;2023-04-30T02:08:56;5.60;99.90
21267;DHT22;10791;53.108;18.326;2023-04-30T02:14:04;5.50;99.90
21267;DHT22;10791;53.108;18.326;2023-04-30T02:19:08;5.40;99.90
21267;DHT22;10791;53.108;18.326;2023-04-30T02:24:11;5.40;99.90
21267;DHT22;10791;53.108;18.326;2023-04-30T02:29:14;5.30;99.90
21267;DHT22;10791;53.108;18.326;2023-04-30T02:34:19;5.30;99.90
21267;DHT22;10791;53.108;18.326;2023-04-30T02:39:22;5.30;99.90
21267;DHT22;10791;53.108;18.326;2023-04-30T02:44:26;5.30;99.90
21267;DHT22;10791;53.108;18.326;2023-04-30T02:49:29;5.10;99.90
21267;DHT22;10791;53.108;18.326;2023-04-30T02:54:33;5.10;99.90
21267;DHT22;10791;53.108;18.326;2023-04-30T02:59:36;5.00;99.90
21267;DHT22;10791;53.108;18.326;2023-04-30T03:04:40;4.90;99.90
21267;DHT22;10791;53.108;18.326;2023-04-30T03:09:44;4.90;99.90
21267;DHT22;10791;53.108;18.326;2023-04-30T03:14:48;4.80;99.90
21267;DHT22;10791;53.108;18.326;2023-04-30T03:19:51;4.80;99.90
21267;DHT22;10791;53.108;18.326;2023-04-30T03:24:55;4.80;99.90
21267;DHT22;10791;53.108;18.326;2023-04-30T03:29:58;4.70;99.90
21267;DHT22;10791;53.108;18.326;2023-04-30T03:35:02;4.70;99.90
21267;DHT22;10791;53.108;18.326;2023-04-30T03:40:06;4.70;99.90
21267;DHT22;10791;53.108;18.326;2023-04-30T03:45:10;4.70;99.90
21267;DHT22;10791;53.108;18.326;2023-04-30T03:50:13;4.70;99.90
21267;DHT22;10791;53.108;18.326;2023-04-30T03:55:17;4.70;99.90
21267;DHT22;10791;53.108;18.326;2023-04-30T04:00:20;4.70;99.90
21267;DHT22;10791;53.108;18.326;2023-04-30T04:05:23;4.80;99.90
21267;DHT22;10791;53.108;18.326;2023-04-30T04:10:27;4.80;99.90
21267;DHT22;10791;53.108;18.326;2023-04-30T04:15:31;4.80;99.90
21267;DHT22;10791;53.108;18.326;2023-04-30T04:20:35;4.90;99.90
21267;DHT22;10791;53.108;18.326;2023-04-30T04:25:38;4.90;99.90
21267;DHT22;10791;53.108;18.326;2023-04-30T04:30:41;5.00;99.90
21267;DHT22;10791;53.108;18.326;2023-04-30T04:35:45;5.00;99.90
21267;DHT22;10791;53.108;18.326;2023-04-30T04:40:52;5.10;99.90
21267;DHT22;10791;53.108;18.326;2023-04-30T04:45:56;5.20;99.90
21267;DHT22;10791;53.108;18.326;2023-04-30T04:50:59;5.20;99.90
21267;DHT22;10791;53.108;18.326;2023-04-30T04:56:03;5.30;99.90
21267;DHT22;10791;53.108;18.326;2023-04-30T05:01:06;5.40;99.90
21267;DHT22;10791;53.108;18.326;2023-04-30T05:06:11;5.50;99.90
21267;DHT22;10791;53.108;18.326;2023-04-30T05:11:14;5.60;99.90
21267;DHT22;10791;53.108;18.326;2023-04-30T05:16:18;5.70;99.90
21267;DHT22;10791;53.108;18.326;2023-04-30T05:21:22;5.90;99.90
21267;DHT22;10791;53.108;18.326;2023-04-30T05:26:25;6.00;99.90
21267;DHT22;10791;53.108;18.326;2023-04-30T05:31:29;6.20;99.90
21267;DHT22;10791;53.108;18.326;2023-04-30T05:36:34;6.30;99.90
21267;DHT22;10791;53.108;18.326;2023-04-30T05:41:37;6.30;99.90
21267;DHT22;10791;53.108;18.326;2023-04-30T05:46:40;6.50;99.90
21267;DHT22;10791;53.108;18.326;2023-04-30T05:51:44;6.60;99.90
21267;DHT22;10791;53.108;18.326;2023-04-30T05:56:47;6.80;99.90
21267;DHT22;10791;53.108;18.326;2023-04-30T06:01:51;6.90;99.90
21267;DHT22;10791;53.108;18.326;2023-04-30T06:06:54;7.10;99.90
21267;DHT22;10791;53.108;18.326;2023-04-30T06:11:58;7.30;99.90
21267;DHT22;10791;53.108;18.326;2023-04-30T06:17:01;7.30;99.90
21267;DHT22;10791;53.108;18.326;2023-04-30T06:22:06;7.40;99.90
21267;DHT22;10791;53.108;18.326;2023-04-30T06:27:18;7.60;99.90
21267;DHT22;10791;53.108;18.326;2023-04-30T06:32:24;7.80;99.90
21267;DHT22;10791;53.108;18.326;2023-04-30T06:37:27;8.00;99.90
21267;DHT22;10791;53.108;18.326;2023-04-30T06:42:37;8.10;99.90
21267;DHT22;10791;53.108;18.326;2023-04-30T06:47:41;8.30;99.90
21267;DHT22;10791;53.108;18.326;2023-04-30T06:52:44;8.60;99.90
21267;DHT22;10791;53.108;18.326;2023-04-30T06:57:48;8.80;99.90
21267;DHT22;10791;53.108;18.326;2023-04-30T07:02:51;9.00;99.90
21267;DHT22;10791;53.108;18.326;2023-04-30T07:07:56;9.20;99.90
21267;DHT22;10791;53.108;18.326;2023-04-30T07:13:00;9.40;99.90
21267;DHT22;10791;53.108;18.326;2023-04-30T07:18:07;9.60;99.90
21267;DHT22;10791;53.108;18.326;2023-04-30T07:23:11;9.70;99.90
21267;DHT22;10791;53.108;18.326;2023-04-30T07:28:15;9.80;99.90
21267;DHT22;10791;53.108;18.326;2023-04-30T07:33:19;10.00;99.90
21267;DHT22;10791;53.108;18.326;2023-04-30T07:38:22;10.10;99.90
21267;DHT22;10791;53.108;18.326;2023-04-30T07:43:25;10.50;99.90
21267;DHT22;10791;53.108;18.326;2023-04-30T07:48:29;10.70;99.90
21267;DHT22;10791;53.108;18.326;2023-04-30T07:53:32;10.80;99.90
21267;DHT22;10791;53.108;18.326;2023-04-30T07:58:36;10.70;99.90
21267;DHT22;10791;53.108;18.326;2023-04-30T08:03:39;10.80;99.90
21267;DHT22;10791;53.108;18.326;2023-04-30T08:08:42;11.10;99.90
21267;DHT22;10791;53.108;18.326;2023-04-30T08:13:46;11.20;96.40
21267;DHT22;10791;53.108;18.326;2023-04-30T08:18:53;11.20;94.40
21267;DHT22;10791;53.108;18.326;2023-04-30T08:24:01;11.20;90.00
21267;DHT22;10791;53.108;18.326;2023-04-30T08:29:04;11.30;91.40
21267;DHT22;10791;53.108;18.326;2023-04-30T08:34:07;11.50;89.30
21267;DHT22;10791;53.108;18.326;2023-04-30T08:39:10;11.60;90.50
21267;DHT22;10791;53.108;18.326;2023-04-30T08:44:21;11.70;90.50
21267;DHT22;10791;53.108;18.326;2023-04-30T08:49:26;11.80;85.10
21267;DHT22;10791;53.108;18.326;2023-04-30T08:54:30;11.70;87.60
21267;DHT22;10791;53.108;18.326;2023-04-30T08:59:34;12.00;87.80
21267;DHT22;10791;53.108;18.326;2023-04-30T09:04:38;12.00;84.00
21267;DHT22;10791;53.108;18.326;2023-04-30T09:09:41;12.10;87.40
21267;DHT22;10791;53.108;18.326;2023-04-30T09:15:17;12.30;88.20
21267;DHT22;10791;53.108;18.326;2023-04-30T09:20:21;12.30;77.00
21267;DHT22;10791;53.108;18.326;2023-04-30T09:25:37;12.40;77.30
21267;DHT22;10791;53.108;18.326;2023-04-30T09:30:42;12.60;84.10
21267;DHT22;10791;53.108;18.326;2023-04-30T09:35:45;12.70;79.00
21267;DHT22;10791;53.108;18.326;2023-04-30T09:40:48;12.80;77.00
21267;DHT22;10791;53.108;18.326;2023-04-30T09:45:52;13.10;75.40
21267;DHT22;10791;53.108;18.326;2023-04-30T09:50:55;13.10;79.40
21267;DHT22;10791;53.108;18.326;2023-04-30T09:56:02;13.10;76.80
21267;DHT22;10791;53.108;18.326;2023-04-30T10:01:09;13.10;77.00
21267;DHT22;10791;53.108;18.326;2023-04-30T10:06:15;13.30;73.70
21267;DHT22;10791;53.108;18.326;2023-04-30T10:11:25;13.40;78.70
21267;DHT22;10791;53.108;18.326;2023-04-30T10:21:45;13.60;74.00
21267;DHT22;10791;53.108;18.326;2023-04-30T10:26:49;13.70;75.00
21267;DHT22;10791;53.108;18.326;2023-04-30T10:31:56;14.00;76.90
21267;DHT22;10791;53.108;18.326;2023-04-30T10:37:20;14.20;74.40
21267;DHT22;10791;53.108;18.326;2023-04-30T10:42:26;14.30;74.10
21267;DHT22;10791;53.108;18.326;2023-04-30T10:47:30;14.20;71.70
21267;DHT22;10791;53.108;18.326;2023-04-30T10:52:37;14.10;73.20
21267;DHT22;10791;53.108;18.326;2023-04-30T10:57:44;13.90;75.40
21267;DHT22;10791;53.108;18.326;2023-04-30T11:02:56;14.00;71.20
21267;DHT22;10791;53.108;18.326;2023-04-30T11:08:03;14.20;73.10
21267;DHT22;10791;53.108;18.326;2023-04-30T11:13:06;14.50;71.30
21267;DHT22;10791;53.108;18.326;2023-04-30T11:18:12;14.70;73.80
21267;DHT22;10791;53.108;18.326;2023-04-30T11:23:21;14.80;68.90
21267;DHT22;10791;53.108;18.326;2023-04-30T11:28:50;15.00;67.90
21267;DHT22;10791;53.108;18.326;2023-04-30T11:33:57;14.70;69.60
21267;DHT22;10791;53.108;18.326;2023-04-30T11:39:03;14.60;68.10
21267;DHT22;10791;53.108;18.326;2023-04-30T11:44:25;14.90;69.70
21267;DHT22;10791;53.108;18.326;2023-04-30T11:49:31;15.00;70.40
21267;DHT22;10791;53.108;18.326;2023-04-30T11:54:38;15.20;66.40
21267;DHT22;10791;53.108;18.326;2023-04-30T11:59:41;15.30;66.40
21267;DHT22;10791;53.108;18.326;2023-04-30T12:04:46;15.50;70.30
21267;DHT22;10791;53.108;18.326;2023-04-30T12:09:54;15.40;65.10
21267;DHT22;10791;53.108;18.326;2023-04-30T12:15:17;14.90;66.80
21267;DHT22;10791;53.108;18.326;2023-04-30T12:20:27;14.40;64.90
21267;DHT22;10791;53.108;18.326;2023-04-30T12:25:39;14.30;68.30
21267;DHT22;10791;53.108;18.326;2023-04-30T12:30:43;14.60;63.00
21267;DHT22;10791;53.108;18.326;2023-04-30T12:35:51;14.40;65.50
21267;DHT22;10791;53.108;18.326;2023-04-30T12:40:56;14.50;69.90
21267;DHT22;10791;53.108;18.326;2023-04-30T12:46:03;14.70;64.00
21267;DHT22;10791;53.108;18.326;2023-04-30T12:51:06;15.00;69.00
21267;DHT22;10791;53.108;18.326;2023-04-30T12:56:18;15.40;67.30
21267;DHT22;10791;53.108;18.326;2023-04-30T13:01:23;15.60;62.30
21267;DHT22;10791;53.108;18.326;2023-04-30T13:06:30;15.80;62.90
21267;DHT22;10791;53.108;18.326;2023-04-30T13:11:36;15.70;62.80
21267;DHT22;10791;53.108;18.326;2023-04-30T13:16:39;15.80;63.70
21267;DHT22;10791;53.108;18.326;2023-04-30T13:21:44;15.90;62.50
21267;DHT22;10791;53.108;18.326;2023-04-30T13:26:47;16.20;61.60
21267;DHT22;10791;53.108;18.326;2023-04-30T13:31:55;16.10;59.40
21267;DHT22;10791;53.108;18.326;2023-04-30T13:36:59;16.20;61.80
21267;DHT22;10791;53.108;18.326;2023-04-30T13:42:02;16.50;61.70
21267;DHT22;10791;53.108;18.326;2023-04-30T13:47:08;16.50;60.50
21267;DHT22;10791;53.108;18.326;2023-04-30T13:52:13;16.50;59.60
21267;DHT22;10791;53.108;18.326;2023-04-30T13:57:17;16.50;59.40
21267;DHT22;10791;53.108;18.326;2023-04-30T14:02:21;16.30;58.10
21267;DHT22;10791;53.108;18.326;2023-04-30T14:07:25;16.20;57.20
21267;DHT22;10791;53.108;18.326;2023-04-30T14:12:30;16.10;58.80
21267;DHT22;10791;53.108;18.326;2023-04-30T14:17:33;16.30;58.00
21267;DHT22;10791;53.108;18.326;2023-04-30T14:22:41;16.40;56.60
21267;DHT22;10791;53.108;18.326;2023-04-30T14:27:44;16.60;56.70
21267;DHT22;10791;53.108;18.326;2023-04-30T14:32:51;17.10;55.50
21267;DHT22;10791;53.108;18.326;2023-04-30T14:37:54;17.40;56.00
21267;DHT22;10791;53.108;18.326;2023-04-30T14:42:57;18.20;53.10
21267;DHT22;10791;53.108;18.326;2023-04-30T14:48:00;19.60;49.40
21267;DHT22;10791;53.108;18.326;2023-04-30T14:53:07;20.60;46.50
21267;DHT22;10791;53.108;18.326;2023-04-30T14:58:11;21.40;47.00
21267;DHT22;10791;53.108;18.326;2023-04-30T15:03:17;21.10;46.20
21267;DHT22;10791;53.108;18.326;2023-04-30T15:08:22;19.90;47.30
21267;DHT22;10791;53.108;18.326;2023-04-30T15:13:27;20.50;46.70
21267;DHT22;10791;53.108;18.326;2023-04-30T15:18:31;20.50;45.90
21267;DHT22;10791;53.108;18.326;2023-04-30T15:23:35;21.20;43.60
21267;DHT22;10791;53.108;18.326;2023-04-30T15:28:41;22.10;45.40
21267;DHT22;10791;53.108;18.326;2023-04-30T15:33:45;22.50;43.10
21267;DHT22;10791;53.108;18.326;2023-04-30T15:38:48;22.10;42.10
21267;DHT22;10791;53.108;18.326;2023-04-30T15:43:51;21.80;41.50
21267;DHT22;10791;53.108;18.326;2023-04-30T15:48:55;21.30;43.30
21267;DHT22;10791;53.108;18.326;2023-04-30T15:54:00;20.80;43.40
21267;DHT22;10791;53.108;18.326;2023-04-30T15:59:07;20.50;44.70
21267;DHT22;10791;53.108;18.326;2023-04-30T16:04:11;20.50;45.20
21267;DHT22;10791;53.108;18.326;2023-04-30T16:09:14;20.10;44.10
21267;DHT22;10791;53.108;18.326;2023-04-30T16:14:24;19.70;44.90
21267;DHT22;10791;53.108;18.326;2023-04-30T16:19:27;19.70;44.70
21267;DHT22;10791;53.108;18.326;2023-04-30T16:24:31;20.00;45.30
21267;DHT22;10791;53.108;18.326;2023-04-30T16:29:34;20.00;45.70
21267;DHT22;10791;53.108;18.326;2023-04-30T16:34:42;19.70;45.10
21267;DHT22;10791;53.108;18.326;2023-04-30T16:39:48;19.00;45.30
21267;DHT22;10791;53.108;18.326;2023-04-30T16:44:54;18.80;46.30
21267;DHT22;10791;53.108;18.326;2023-04-30T16:49:57;18.60;46.30
21267;DHT22;10791;53.108;18.326;2023-04-30T16:55:02;18.80;46.60
21267;DHT22;10791;53.108;18.326;2023-04-30T17:00:08;19.40;46.80
21267;DHT22;10791;53.108;18.326;2023-04-30T17:05:14;19.80;45.30
21267;DHT22;10791;53.108;18.326;2023-04-30T17:10:18;20.00;43.40
21267;DHT22;10791;53.108;18.326;2023-04-30T17:15:21;19.60;43.80
21267;DHT22;10791;53.108;18.326;2023-04-30T17:20:25;19.00;45.90
21267;DHT22;10791;53.108;18.326;2023-04-30T17:25:29;18.10;46.70
21267;DHT22;10791;53.108;18.326;2023-04-30T17:30:35;17.90;48.50
21267;DHT22;10791;53.108;18.326;2023-04-30T17:35:40;17.50;48.80
21267;DHT22;10791;53.108;18.326;2023-04-30T17:40:44;17.50;49.60
21267;DHT22;10791;53.108;18.326;2023-04-30T17:45:48;16.50;51.40
21267;DHT22;10791;53.108;18.326;2023-04-30T17:50:57;15.30;53.50
21267;DHT22;10791;53.108;18.326;2023-04-30T17:56:03;14.30;55.50
21267;DHT22;10791;53.108;18.326;2023-04-30T18:01:08;13.70;57.10
21267;DHT22;10791;53.108;18.326;2023-04-30T18:06:13;13.30;59.10
21267;DHT22;10791;53.108;18.326;2023-04-30T18:11:17;13.00;61.00
21267;DHT22;10791;53.108;18.326;2023-04-30T18:16:22;12.60;61.40
21267;DHT22;10791;53.108;18.326;2023-04-30T18:21:26;12.30;62.50
21267;DHT22;10791;53.108;18.326;2023-04-30T18:26:31;12.00;65.00
21267;DHT22;10791;53.108;18.326;2023-04-30T18:31:34;11.80;65.30
21267;DHT22;10791;53.108;18.326;2023-04-30T18:36:39;11.50;65.60
21267;DHT22;10791;53.108;18.326;2023-04-30T18:41:47;11.30;66.80
21267;DHT22;10791;53.108;18.326;2023-04-30T18:46:54;11.10;67.50
21267;DHT22;10791;53.108;18.326;2023-04-30T18:52:00;10.90;67.40
21267;DHT22;10791;53.108;18.326;2023-04-30T18:57:06;10.60;68.00
21267;DHT22;10791;53.108;18.326;2023-04-30T19:02:14;10.50;68.80
21267;DHT22;10791;53.108;18.326;2023-04-30T19:07:20;10.20;68.70
21267;DHT22;10791;53.108;18.326;2023-04-30T19:12:26;10.10;68.90
21267;DHT22;10791;53.108;18.326;2023-04-30T19:17:32;9.90;68.50
21267;DHT22;10791;53.108;18.326;2023-04-30T19:22:38;9.90;69.60
21267;DHT22;10791;53.108;18.326;2023-04-30T19:27:44;9.70;69.40
21267;DHT22;10791;53.108;18.326;2023-04-30T19:32:49;9.70;70.00
21267;DHT22;10791;53.108;18.326;2023-04-30T19:37:55;9.50;70.70
21267;DHT22;10791;53.108;18.326;2023-04-30T19:43:01;9.40;71.20
21267;DHT22;10791;53.108;18.326;2023-04-30T19:48:11;9.30;71.20
21267;DHT22;10791;53.108;18.326;2023-04-30T19:53:17;9.10;70.60
21267;DHT22;10791;53.108;18.326;2023-04-30T19:58:23;9.00;70.50
21267;DHT22;10791;53.108;18.326;2023-04-30T20:03:27;8.80;71.60
21267;DHT22;10791;53.108;18.326;2023-04-30T20:08:31;8.70;71.70
21267;DHT22;10791;53.108;18.326;2023-04-30T20:13:38;8.50;72.90
21267;DHT22;10791;53.108;18.326;2023-04-30T20:18:46;8.40;73.60
21267;DHT22;10791;53.108;18.326;2023-04-30T20:23:51;8.30;74.60
21267;DHT22;10791;53.108;18.326;2023-04-30T20:28:55;8.00;75.30
21267;DHT22;10791;53.108;18.326;2023-04-30T20:34:01;8.00;76.90
21267;DHT22;10791;53.108;18.326;2023-04-30T20:39:09;8.00;79.40
21267;DHT22;10791;53.108;18.326;2023-04-30T20:44:15;7.80;81.90
21267;DHT22;10791;53.108;18.326;2023-04-30T20:49:19;7.70;80.70
21267;DHT22;10791;53.108;18.326;2023-04-30T20:54:22;7.40;80.70
21267;DHT22;10791;53.108;18.326;2023-04-30T20:59:28;7.40;82.30
21267;DHT22;10791;53.108;18.326;2023-04-30T21:04:32;7.30;83.50
21267;DHT22;10791;53.108;18.326;2023-04-30T21:09:36;7.10;84.10
21267;DHT22;10791;53.108;18.326;2023-04-30T21:14:40;6.90;84.50
21267;DHT22;10791;53.108;18.326;2023-04-30T21:19:43;6.80;85.70
21267;DHT22;10791;53.108;18.326;2023-04-30T21:24:50;6.80;86.90
21267;DHT22;10791;53.108;18.326;2023-04-30T21:29:54;6.70;87.00
21267;DHT22;10791;53.108;18.326;2023-04-30T21:34:58;6.60;87.60
21267;DHT22;10791;53.108;18.326;2023-04-30T21:40:01;6.60;88.50
21267;DHT22;10791;53.108;18.326;2023-04-30T21:45:06;6.60;89.90
21267;DHT22;10791;53.108;18.326;2023-04-30T21:50:11;6.60;90.30
21267;DHT22;10791;53.108;18.326;2023-04-30T21:55:14;6.50;90.80
21267;DHT22;10791;53.108;18.326;2023-04-30T22:00:18;6.30;92.70
21267;DHT22;10791;53.108;18.326;2023-04-30T22:05:21;6.20;93.30
21267;DHT22;10791;53.108;18.326;2023-04-30T22:10:24;6.00;94.20
21267;DHT22;10791;53.108;18.326;2023-04-30T22:15:27;5.80;95.70
21267;DHT22;10791;53.108;18.326;2023-04-30T22:20:49;5.50;97.00
21267;DHT22;10791;53.108;18.326;2023-04-30T22:25:53;5.40;98.60
21267;DHT22;10791;53.108;18.326;2023-04-30T22:30:57;5.20;99.80
21267;DHT22;10791;53.108;18.326;2023-04-30T22:36:02;5.10;99.90
21267;DHT22;10791;53.108;18.326;2023-04-30T22:41:07;5.10;99.90
21267;DHT22;10791;53.108;18.326;2023-04-30T22:46:11;4.90;99.90
21267;DHT22;10791;53.108;18.326;2023-04-30T22:51:15;4.80;99.90
21267;DHT22;10791;53.108;18.326;2023-04-30T22:56:19;4.60;99.90
21267;DHT22;10791;53.108;18.326;2023-04-30T23:01:22;4.50;99.90
21267;DHT22;10791;53.108;18.326;2023-04-30T23:06:27;4.30;99.90
21267;DHT22;10791;53.108;18.326;2023-04-30T23:11:31;4.20;99.90
21267;DHT22;10791;53.108;18.326;2023-04-30T23:16:35;4.10;99.90
21267;DHT22;10791;53.108;18.326;2023-04-30T23:21:42;4.00;99.90
21267;DHT22;10791;53.108;18.326;2023-04-30T23:26:45;3.90;99.90
21267;DHT22;10791;53.108;18.326;2023-04-30T23:31:49;3.70;99.90
21267;DHT22;10791;53.108;18.326;2023-04-30T23:36:52;3.60;99.90
21267;DHT22;10791;53.108;18.326;2023-04-30T23:41:56;3.40;99.90
21267;DHT22;10791;53.108;18.326;2023-04-30T23:46:59;3.30;99.90
21267;DHT22;10791;53.108;18.326;2023-04-30T23:52:03;3.20;99.90
21267;DHT22;10791;53.108;18.326;2023-04-30T23:57:06;3.00;99.90
